EHSA

Euro Platform

Euro Platform, The Netherlands
METAR EHSA 181525Z AUTO 02013KT 9999 ///////// 15/09 Q1025 W15/H11
Observed Flight Rules
Oct-18 @ 15:25 UTC (32 minutes ago)
Wind Visibility
20° at 13 knots 10,000+ meters
Temperatures Readings
Current 15°C / 59°F
Dewpoint 9°C / 48°F
Humidity 68%
Altimeter 30.27" Hg
Pressure 1025 hPa
Elevation 50
METAR EHSA 181525Z AUTO 02013KT 9999 ///////// 15/09 Q1025 W15/H11
Observed Flight Rules
Oct-18 @ 15:25 UTC
(32 minutes ago)
Wind Visibility
20° at 13 knots 10,000+ meters
Temperature Dewpoint
15°C / 59°F 9°C / 48°F
Humidity Altimeter Pressure
68% 30.27" Hg 1025 hPa